createdAt,value
2018-05-15T00:02:20.996Z,100980
2018-05-15T00:04:49.129Z,100985
2018-05-15T00:07:17.321Z,100976
2018-05-15T00:09:45.462Z,100978
2018-05-15T00:12:13.611Z,100978
2018-05-15T00:14:41.769Z,100985
2018-05-15T00:17:09.901Z,100981
2018-05-15T00:19:38.051Z,100976
2018-05-15T00:22:06.940Z,100980
2018-05-15T00:24:35.855Z,100978
2018-05-15T00:27:04.003Z,100983
2018-05-15T00:29:32.905Z,100976
2018-05-15T00:32:01.043Z,100975
2018-05-15T00:34:29.210Z,100978
2018-05-15T00:36:57.430Z,100974
2018-05-15T00:39:25.567Z,100972
2018-05-15T00:41:53.702Z,100985
2018-05-15T00:44:21.854Z,100986
2018-05-15T00:46:49.976Z,100985
2018-05-15T00:49:18.131Z,100980
2018-05-15T00:51:46.276Z,100989
2018-05-15T00:54:14.403Z,100989
2018-05-15T00:56:42.548Z,100982
2018-05-15T00:59:10.683Z,100980
2018-05-15T01:01:38.837Z,100978
2018-05-15T01:04:07.739Z,100979
2018-05-15T01:06:35.883Z,100980
2018-05-15T01:09:04.019Z,100985
2018-05-15T01:11:32.218Z,100989
2018-05-15T01:14:00.377Z,100986
2018-05-15T01:16:28.567Z,100987
2018-05-15T01:18:56.681Z,100988
2018-05-15T01:21:24.854Z,100995
2018-05-15T01:23:52.998Z,100985
2018-05-15T01:26:21.936Z,100997
2018-05-15T01:28:50.067Z,100992
2018-05-15T01:31:18.973Z,100994
2018-05-15T01:33:47.157Z,100993
2018-05-15T01:36:15.305Z,100992
2018-05-15T01:38:44.235Z,100995
2018-05-15T01:41:12.382Z,101002
2018-05-15T01:43:40.516Z,100996
2018-05-15T01:46:08.677Z,100992
2018-05-15T01:48:36.816Z,100993
2018-05-15T01:51:05.692Z,100999
2018-05-15T01:53:33.819Z,101005
2018-05-15T01:56:01.964Z,101007
2018-05-15T01:58:30.114Z,100995
2018-05-15T02:00:58.271Z,100996
2018-05-15T02:03:26.406Z,100998
2018-05-15T02:05:55.351Z,101001
2018-05-15T02:08:23.473Z,100994
2018-05-15T02:10:51.607Z,100995
2018-05-15T02:13:19.759Z,100990
2018-05-15T02:15:47.895Z,100989
2018-05-15T02:18:16.071Z,100980
2018-05-15T02:20:44.229Z,100977
2018-05-15T02:23:12.373Z,100975
2018-05-15T02:25:40.515Z,100982
2018-05-15T02:28:09.429Z,100982
2018-05-15T02:30:37.621Z,100987
2018-05-15T02:33:05.755Z,100993
2018-05-15T02:35:33.884Z,100980
2018-05-15T02:38:02.017Z,100985
2018-05-15T02:40:30.168Z,100981
2018-05-15T02:42:59.071Z,100973
2018-05-15T02:45:27.222Z,100972
2018-05-15T02:47:56.137Z,100978
2018-05-15T02:50:24.273Z,100969
2018-05-15T02:52:52.417Z,100976
2018-05-15T02:55:20.571Z,100977
2018-05-15T02:57:48.720Z,100972
2018-05-15T03:00:16.964Z,100974
2018-05-15T03:02:45.135Z,100968
2018-05-15T03:05:13.269Z,100973
2018-05-15T03:07:41.400Z,100969
2018-05-15T03:10:10.318Z,100970
2018-05-15T03:12:38.542Z,100966
2018-05-15T03:15:06.635Z,100963
2018-05-15T03:17:34.785Z,100963
2018-05-15T03:20:03.680Z,100968
2018-05-15T03:22:32.613Z,100965
2018-05-15T03:25:00.762Z,100970
2018-05-15T03:27:28.914Z,100965
2018-05-15T03:29:57.823Z,100978
2018-05-15T03:32:26.743Z,100974
2018-05-15T03:34:54.876Z,100976
2018-05-15T03:37:23.800Z,100977
2018-05-15T03:39:51.945Z,100978
2018-05-15T03:42:20.110Z,100978
2018-05-15T03:44:49.013Z,100988
2018-05-15T03:47:17.908Z,100996
2018-05-15T03:49:46.060Z,100991
2018-05-15T03:52:15.075Z,100981
2018-05-15T03:54:43.239Z,100988
2018-05-15T03:57:12.165Z,100978
2018-05-15T03:59:40.296Z,100984
2018-05-15T04:02:27.103Z,100982
2018-05-15T04:05:13.989Z,100979
2018-05-15T04:08:00.051Z,100972
2018-05-15T04:10:28.187Z,100976
2018-05-15T04:12:57.082Z,100971
2018-05-15T04:15:25.231Z,100972
2018-05-15T04:17:53.371Z,100978
2018-05-15T04:20:21.516Z,100977
2018-05-15T04:22:49.653Z,100976
2018-05-15T04:25:17.808Z,100968
2018-05-15T04:27:45.935Z,100966
2018-05-15T04:30:14.086Z,100974
2018-05-15T04:32:42.232Z,100979
2018-05-15T04:35:10.425Z,100976
2018-05-15T04:37:38.538Z,100980
2018-05-15T04:40:06.686Z,100967
2018-05-15T04:42:34.875Z,100973
2018-05-15T04:45:03.907Z,100973
2018-05-15T04:47:32.045Z,100970
2018-05-15T04:50:00.194Z,100970
2018-05-15T04:52:28.334Z,100976
2018-05-15T04:54:56.482Z,100969
2018-05-15T04:57:25.391Z,100970
2018-05-15T04:59:53.549Z,100976
2018-05-15T05:02:21.673Z,100976
2018-05-15T05:04:49.835Z,100982
2018-05-15T05:07:18.725Z,100983
2018-05-15T05:09:47.638Z,100984
2018-05-15T05:12:15.777Z,100981
2018-05-15T05:14:44.689Z,100985
2018-05-15T05:17:12.864Z,100989
2018-05-15T05:19:41.017Z,100990
2018-05-15T05:22:09.936Z,100993
2018-05-15T05:24:38.092Z,100986
2018-05-15T05:27:06.277Z,100995
2018-05-15T05:29:35.150Z,100994
2018-05-15T05:32:04.054Z,101003
2018-05-15T05:34:32.196Z,101004
2018-05-15T05:37:00.353Z,101000
2018-05-15T05:39:28.566Z,101006
2018-05-15T05:41:56.763Z,101010
2018-05-15T05:44:24.906Z,101002
2018-05-15T05:46:53.041Z,101003
2018-05-15T05:49:21.192Z,100997
2018-05-15T05:51:49.349Z,101007
2018-05-15T05:54:17.502Z,101003
2018-05-15T05:56:45.661Z,101001
2018-05-15T05:59:15.158Z,101009
2018-05-15T06:01:44.055Z,101009
2018-05-15T06:04:12.953Z,101008
2018-05-15T06:06:41.853Z,101009
2018-05-15T06:09:09.988Z,101009
2018-05-15T06:11:38.248Z,101011
2018-05-15T06:14:06.379Z,101003
2018-05-15T06:16:34.628Z,101010
2018-05-15T06:19:03.509Z,101003
2018-05-15T06:21:32.418Z,101011
2018-05-15T06:24:00.577Z,101018
2018-05-15T06:26:29.473Z,101004
2018-05-15T06:28:58.386Z,101005
2018-05-15T06:31:26.532Z,101009
2018-05-15T06:33:57.029Z,101010
2018-05-15T06:36:25.184Z,101009
2018-05-15T06:38:53.359Z,101007
2018-05-15T06:41:21.520Z,101002
2018-05-15T06:43:49.716Z,101009
2018-05-15T06:46:17.865Z,101006
2018-05-15T06:48:45.995Z,100999
2018-05-15T06:51:14.915Z,101004
2018-05-15T06:53:43.047Z,101004
2018-05-15T06:56:11.204Z,101008
2018-05-15T06:58:39.358Z,101005
2018-05-15T07:01:07.521Z,101005
2018-05-15T07:03:35.655Z,101002
2018-05-15T07:06:04.573Z,101004
2018-05-15T07:08:32.803Z,101007
2018-05-15T07:11:00.982Z,100996
2018-05-15T07:13:29.940Z,100997
2018-05-15T07:15:58.503Z,101004
2018-05-15T07:18:26.640Z,101003
2018-05-15T07:20:54.781Z,101003
2018-05-15T07:23:22.910Z,101006
2018-05-15T07:25:51.147Z,101011
2018-05-15T07:28:20.046Z,101002
2018-05-15T07:30:48.992Z,100996
2018-05-15T07:33:17.280Z,101010
2018-05-15T07:50:03.350Z,101026
2018-05-15T07:55:32.273Z,100982
2018-05-15T07:58:00.438Z,100986
2018-05-15T08:00:28.598Z,100988
2018-05-15T08:02:56.765Z,100988
2018-05-15T08:05:24.931Z,100990
2018-05-15T08:07:53.076Z,100986
2018-05-15T08:10:21.223Z,100992
2018-05-15T08:12:49.383Z,100987
2018-05-15T08:15:17.518Z,100989
2018-05-15T08:20:37.699Z,100984
2018-05-15T08:26:37.193Z,100983
2018-05-15T08:29:19.168Z,100984
2018-05-15T08:32:06.984Z,100983
2018-05-15T08:34:49.751Z,100984
2018-05-15T08:37:38.075Z,100994
2018-05-15T08:40:19.225Z,100984
2018-05-15T08:46:08.651Z,100996
2018-05-15T08:48:42.625Z,100991
2018-05-15T08:51:11.746Z,100994
2018-05-15T08:53:45.172Z,100994
2018-05-15T08:56:14.087Z,101001
2018-05-15T08:58:42.247Z,101001
2018-05-15T09:01:10.391Z,100993
2018-05-15T09:03:39.356Z,100998
2018-05-15T09:06:07.496Z,100998
2018-05-15T09:08:35.659Z,100986
2018-05-15T09:11:03.793Z,100984
2018-05-15T09:13:32.006Z,100986
2018-05-15T09:16:00.179Z,100985
2018-05-15T09:18:28.413Z,100989
2018-05-15T09:20:57.323Z,100982
2018-05-15T09:23:26.217Z,100977
2018-05-15T09:25:55.131Z,100991
2018-05-15T09:28:45.941Z,100985
2018-05-15T09:31:33.078Z,100987
2018-05-15T09:34:30.860Z,100989
2018-05-15T09:37:12.494Z,100989
2018-05-15T09:39:40.624Z,100988
2018-05-15T09:42:20.034Z,100982
2018-05-15T09:45:00.774Z,100983
2018-05-15T09:50:50.231Z,100989
2018-05-15T09:56:19.044Z,100981
2018-05-15T09:58:47.243Z,100985
2018-05-15T10:01:15.402Z,100991
2018-05-15T10:03:43.559Z,100980
2018-05-15T10:06:12.954Z,100977
2018-05-15T10:08:51.683Z,100982
2018-05-15T10:14:45.110Z,100982
2018-05-15T10:17:29.613Z,100975
2018-05-15T10:20:10.180Z,100978
2018-05-15T10:25:33.936Z,100972
2018-05-15T10:28:02.147Z,100972
2018-05-15T10:30:31.098Z,100963
2018-05-15T10:33:05.303Z,100964
2018-05-15T10:35:42.270Z,100973
2018-05-15T10:38:16.769Z,100971
2018-05-15T10:43:45.324Z,100961
2018-05-15T10:46:13.471Z,100954
2018-05-15T10:48:41.604Z,100962
2018-05-15T10:51:09.739Z,100957
2018-05-15T10:53:37.916Z,100954
2018-05-15T10:59:14.605Z,100952
2018-05-15T11:01:50.263Z,100953
2018-05-15T11:04:27.441Z,100948
2018-05-15T11:06:55.747Z,100942
2018-05-15T11:09:24.688Z,100941
2018-05-15T11:11:53.570Z,100937
2018-05-15T11:14:22.425Z,100941
2018-05-15T11:16:51.345Z,100934
2018-05-15T11:19:37.389Z,100939
2018-05-15T11:22:23.388Z,100936
2018-05-15T11:24:53.108Z,100932
2018-05-15T11:27:22.161Z,100924
2018-05-15T11:29:50.409Z,100930
2018-05-15T11:32:18.617Z,100938
2018-05-15T11:34:46.784Z,100927
2018-05-15T11:37:14.992Z,100929
2018-05-15T11:39:43.919Z,100928
2018-05-15T11:42:12.063Z,100924
2018-05-15T11:44:46.370Z,100930
2018-05-15T11:47:14.606Z,100924
2018-05-15T11:49:43.732Z,100914
2018-05-15T11:52:12.838Z,100923
2018-05-15T11:54:42.107Z,100912
2018-05-15T11:57:10.953Z,100921
2018-05-15T11:59:39.220Z,100917
2018-05-15T12:02:08.100Z,100914
2018-05-15T12:04:36.450Z,100955
2018-05-15T12:07:05.390Z,100917
2018-05-15T12:09:33.724Z,100899
2018-05-15T12:12:02.648Z,100903
2018-05-15T12:14:30.841Z,100910
2018-05-15T12:24:00.532Z,100903
2018-05-15T12:26:28.820Z,100908
2018-05-15T12:28:57.078Z,100902
2018-05-15T12:31:25.263Z,100896
2018-05-15T12:33:53.418Z,100905
2018-05-15T12:36:22.373Z,100897
2018-05-15T12:38:50.709Z,100897
2018-05-15T12:41:19.308Z,100892
2018-05-15T12:44:27.461Z,100890
2018-05-15T12:49:46.105Z,100891
2018-05-15T12:52:27.310Z,100888
2018-05-15T12:58:05.552Z,100889
2018-05-15T13:03:28.500Z,100892
2018-05-15T13:06:02.751Z,100879
2018-05-15T13:08:33.157Z,100877
2018-05-15T13:11:05.321Z,100873
2018-05-15T13:13:33.508Z,100871
2018-05-15T13:16:01.672Z,100872
2018-05-15T13:18:29.879Z,100866
2018-05-15T13:20:57.992Z,100857
2018-05-15T13:23:26.190Z,100858
2018-05-15T13:32:10.052Z,100848
2018-05-15T13:34:47.889Z,100844
2018-05-15T13:37:22.952Z,100843
2018-05-15T13:42:50.583Z,100835
2018-05-15T13:45:18.716Z,100827
2018-05-15T13:47:48.102Z,100837
2018-05-15T13:50:16.257Z,100828
2018-05-15T13:52:46.171Z,100837
2018-05-15T13:55:15.203Z,100831
2018-05-15T13:57:45.240Z,100836
2018-05-15T14:00:32.495Z,100825
2018-05-15T14:03:00.731Z,100824
2018-05-15T14:05:38.749Z,100830
2018-05-15T14:08:08.059Z,100815
2018-05-15T14:10:36.213Z,100822
2018-05-15T14:13:04.362Z,100827
2018-05-15T14:15:32.505Z,100812
2018-05-15T14:18:00.647Z,100816
2018-05-15T14:20:28.971Z,100808
2018-05-15T14:22:57.167Z,100794
2018-05-15T14:25:25.319Z,100807
2018-05-15T14:27:53.458Z,100802
2018-05-15T14:30:21.588Z,100801
2018-05-15T14:32:49.794Z,100808
2018-05-15T14:35:18.050Z,100792
2018-05-15T14:37:46.217Z,100802
2018-05-15T14:40:14.415Z,100801
2018-05-15T14:43:00.240Z,100800
2018-05-15T14:45:28.407Z,100794
2018-05-15T14:47:56.555Z,100799
2018-05-15T14:50:24.768Z,100796
2018-05-15T14:52:53.030Z,100794
2018-05-15T14:55:27.996Z,100790
2018-05-15T14:57:56.113Z,100786
2018-05-15T15:00:25.029Z,100801
2018-05-15T15:02:53.215Z,100790
2018-05-15T15:05:21.375Z,100795
2018-05-15T15:07:49.489Z,100797
2018-05-15T15:10:20.037Z,100793
2018-05-15T15:12:48.531Z,100798
2018-05-15T15:15:18.428Z,100800
2018-05-15T15:17:46.859Z,100795
2018-05-15T15:20:15.862Z,100793
2018-05-15T15:22:44.035Z,100787
2018-05-15T15:25:12.275Z,100797
2018-05-15T15:27:41.185Z,100797
2018-05-15T15:30:09.552Z,100791
2018-05-15T15:32:37.709Z,100791
2018-05-15T15:35:05.921Z,100789
2018-05-15T15:37:34.077Z,100794
2018-05-15T15:40:02.273Z,100796
2018-05-15T15:42:30.554Z,100793
2018-05-15T15:44:58.632Z,100778
2018-05-15T15:47:26.938Z,100789
2018-05-15T15:49:55.074Z,100793
2018-05-15T15:52:23.243Z,100797
2018-05-15T15:54:51.782Z,100795
2018-05-15T15:57:20.796Z,100788
2018-05-15T15:59:49.006Z,100782
2018-05-15T16:02:17.156Z,100783
2018-05-15T16:04:45.367Z,100782
2018-05-15T16:07:13.506Z,100780
2018-05-15T16:09:41.712Z,100772
2018-05-15T16:12:10.632Z,100776
2018-05-15T16:14:39.552Z,100778
2018-05-15T16:17:07.711Z,100776
2018-05-15T16:19:35.842Z,100781
2018-05-15T16:22:03.995Z,100769
2018-05-15T16:24:32.162Z,100775
2018-05-15T16:27:00.468Z,100780
2018-05-15T16:29:28.603Z,100766
2018-05-15T16:31:56.770Z,100754
2018-05-15T16:34:24.922Z,100766
2018-05-15T16:36:53.045Z,100764
2018-05-15T16:39:21.207Z,100771
2018-05-15T16:41:49.334Z,100765
2018-05-15T16:44:17.478Z,100760
2018-05-15T16:46:45.609Z,100765
2018-05-15T16:49:13.780Z,100769
2018-05-15T16:51:42.012Z,100763
2018-05-15T16:54:10.917Z,100750
2018-05-15T16:56:39.083Z,100751
2018-05-15T16:59:07.226Z,100760
2018-05-15T17:01:35.411Z,100755
2018-05-15T17:04:04.361Z,100757
2018-05-15T17:06:33.370Z,100756
2018-05-15T17:09:01.709Z,100754
2018-05-15T17:11:29.857Z,100751
2018-05-15T17:13:58.749Z,100758
2018-05-15T17:16:27.638Z,100751
2018-05-15T17:18:56.548Z,100745
2018-05-15T17:21:24.679Z,100752
2018-05-15T17:23:52.876Z,100743
2018-05-15T17:26:21.757Z,100741
2018-05-15T17:28:49.900Z,100746
2018-05-15T17:31:18.033Z,100740
2018-05-15T17:33:46.187Z,100739
2018-05-15T17:36:14.306Z,100738
2018-05-15T17:38:42.449Z,100742
2018-05-15T17:41:10.616Z,100736
2018-05-15T17:43:38.805Z,100730
2018-05-15T17:46:06.943Z,100729
2018-05-15T17:48:35.854Z,100731
2018-05-15T17:51:04.011Z,100726
2018-05-15T17:53:32.157Z,100737
2018-05-15T17:56:00.280Z,100732
2018-05-15T17:58:28.411Z,100741
2018-05-15T18:00:57.428Z,100744
2018-05-15T18:03:25.529Z,100739
2018-05-15T18:05:53.970Z,100737
2018-05-15T18:08:22.109Z,100746
2018-05-15T18:10:50.250Z,100737
2018-05-15T18:13:18.412Z,100737
2018-05-15T18:15:46.574Z,100736
2018-05-15T18:18:14.739Z,100729
2018-05-15T18:20:42.880Z,100740
2018-05-15T18:23:11.842Z,100737
2018-05-15T18:25:39.984Z,100737
2018-05-15T18:28:08.122Z,100731
2018-05-15T18:30:37.026Z,100718
2018-05-15T18:33:06.029Z,100717
2018-05-15T18:35:34.135Z,100715
2018-05-15T18:38:02.280Z,100719
2018-05-15T18:40:30.414Z,100717
2018-05-15T18:42:58.591Z,100730
2018-05-15T18:45:26.938Z,100715
2018-05-15T18:47:55.074Z,100715
2018-05-15T18:50:23.227Z,100715
2018-05-15T18:52:52.174Z,100721
2018-05-15T18:55:21.189Z,100724
2018-05-15T18:57:49.375Z,100735
2018-05-15T19:00:18.285Z,100725
2018-05-15T19:02:46.423Z,100720
2018-05-15T19:05:14.550Z,100723
2018-05-15T19:07:42.711Z,100724
2018-05-15T19:10:11.349Z,100729
2018-05-15T19:12:39.530Z,100734
2018-05-15T19:15:07.660Z,100734
2018-05-15T19:17:35.792Z,100725
2018-05-15T19:20:03.944Z,100728
2018-05-15T19:22:32.111Z,100723
2018-05-15T19:25:00.255Z,100732
2018-05-15T19:27:28.420Z,100732
2018-05-15T19:29:56.600Z,100739
2018-05-15T19:32:30.874Z,100740
2018-05-15T19:34:59.025Z,100748
2018-05-15T19:37:27.188Z,100740
2018-05-15T19:39:57.232Z,100747
2018-05-15T19:42:26.144Z,100741
2018-05-15T19:44:54.331Z,100743
2018-05-15T19:47:22.474Z,100745
2018-05-15T19:49:51.386Z,100746
2018-05-15T19:52:19.510Z,100738
2018-05-15T19:54:47.663Z,100738
2018-05-15T19:57:15.831Z,100742
2018-05-15T19:59:43.968Z,100744
2018-05-15T20:02:12.126Z,100746
2018-05-15T20:04:40.276Z,100744
2018-05-15T20:07:08.417Z,100752
2018-05-15T20:09:36.566Z,100754
2018-05-15T20:12:04.877Z,100748
2018-05-15T20:14:32.983Z,100750
2018-05-15T20:17:01.911Z,100748
2018-05-15T20:19:30.073Z,100741
2018-05-15T20:21:58.195Z,100751
2018-05-15T20:24:26.319Z,100751
2018-05-15T20:26:54.463Z,100749
2018-05-15T20:29:23.355Z,100745
2018-05-15T20:31:52.260Z,100742
2018-05-15T20:34:20.389Z,100749
2018-05-15T20:36:48.579Z,100753
2018-05-15T20:39:17.481Z,100749
2018-05-15T20:41:46.430Z,100752
2018-05-15T20:44:14.553Z,100753
2018-05-15T20:46:42.756Z,100754
2018-05-15T20:49:10.914Z,100752
2018-05-15T20:51:39.762Z,100759
2018-05-15T20:54:07.996Z,100753
2018-05-15T20:56:36.141Z,100767
2018-05-15T20:59:04.268Z,100758
2018-05-15T21:01:32.401Z,100758
2018-05-15T21:04:00.546Z,100757
2018-05-15T21:06:28.721Z,100775
2018-05-15T21:08:56.863Z,100769
2018-05-15T21:11:25.007Z,100765
2018-05-15T21:13:53.139Z,100776
2018-05-15T21:16:21.328Z,100768
2018-05-15T21:18:50.272Z,100765
2018-05-15T21:21:18.431Z,100764
2018-05-15T21:23:46.553Z,100772
2018-05-15T21:26:14.746Z,100782
2018-05-15T21:28:43.705Z,100780
2018-05-15T21:31:12.606Z,100784
2018-05-15T21:33:40.735Z,100786
2018-05-15T21:36:08.891Z,100786
2018-05-15T21:38:37.010Z,100785
2018-05-15T21:41:05.906Z,100781
2018-05-15T21:43:34.823Z,100782
2018-05-15T21:46:03.035Z,100790
2018-05-15T21:48:31.158Z,100787
2018-05-15T21:50:59.312Z,100785
2018-05-15T21:53:27.515Z,100784
2018-05-15T21:55:55.654Z,100790
2018-05-15T21:58:24.581Z,100794
2018-05-15T22:00:52.727Z,100788
2018-05-15T22:03:21.511Z,100789
2018-05-15T22:05:49.738Z,100786
2018-05-15T22:08:17.931Z,100778
2018-05-15T22:10:46.073Z,100782
2018-05-15T22:13:31.898Z,100788
2018-05-15T22:16:18.477Z,100778
2018-05-15T22:19:04.303Z,100780
2018-05-15T22:21:50.800Z,100777
2018-05-15T22:24:26.576Z,100785
2018-05-15T22:26:56.666Z,100773
2018-05-15T22:29:25.618Z,100774
2018-05-15T22:31:53.781Z,100776
2018-05-15T22:34:21.901Z,100768
2018-05-15T22:36:50.835Z,100768
2018-05-15T22:39:18.980Z,100773
2018-05-15T22:41:47.925Z,100775
2018-05-15T22:44:16.135Z,100772
2018-05-15T22:46:45.020Z,100773
2018-05-15T22:49:13.901Z,100765
2018-05-15T22:51:42.027Z,100773
2018-05-15T22:54:10.149Z,100759
2018-05-15T22:56:38.826Z,100756
2018-05-15T22:59:07.832Z,100764
2018-05-15T23:01:35.962Z,100754
2018-05-15T23:04:04.094Z,100753
2018-05-15T23:06:32.343Z,100762
2018-05-15T23:09:00.421Z,100755
2018-05-15T23:11:28.554Z,100751
2018-05-15T23:13:56.706Z,100754
2018-05-15T23:16:24.834Z,100747
2018-05-15T23:18:54.521Z,100756
2018-05-15T23:21:24.665Z,100749
2018-05-15T23:23:53.562Z,100755
2018-05-15T23:26:22.453Z,100765
2018-05-15T23:28:51.988Z,100763
2018-05-15T23:31:20.232Z,100767
2018-05-15T23:33:49.951Z,100764
2018-05-15T23:36:21.995Z,100766
2018-05-15T23:38:50.854Z,100769
2018-05-15T23:41:19.877Z,100772
2018-05-15T23:43:48.793Z,100768
2018-05-15T23:46:16.925Z,100766
2018-05-15T23:48:45.072Z,100768
2018-05-15T23:51:13.200Z,100768
2018-05-15T23:53:42.486Z,100764
2018-05-15T23:56:12.125Z,100770
2018-05-15T23:58:40.810Z,100769
